KAND

Anderson Regional Airport

Anderson, South Carolina, USA
METAR KAND 161856Z AUTO 23006KT 10SM CLR 13/01 A3018 RMK AO2 SLP220 T01330011
Observed Flight Rules
Jan-16 @ 18:56 UTC (20 minutes ago) Visual Flight Rules
Wind Visibility Clouds
230° at 6 knots 10 miles
  • Clear skies
Temperatures Readings
Current 13°C / 55°F
Dewpoint 1°C / 34°F
Humidity 44%
Altimeter 30.18" Hg
Pressure 1022 hPa
Elevation 239
METAR KAND 161856Z AUTO 23006KT 10SM CLR 13/01 A3018 RMK AO2 SLP220 T01330011
Observed Flight Rules
Jan-16 @ 18:56 UTC
(20 minutes ago)
VFR
Wind Visibility
230° at 6 knots 10 miles
Clouds
  • Clear skies
Temperature Dewpoint
13°C / 55°F 1°C / 34°F
Humidity Altimeter Pressure
44% 30.18" Hg 1022 hPa